createdAt,value
2019-02-27T00:00:13.353Z,14.60
2019-02-27T00:02:41.354Z,12.88
2019-02-27T00:05:09.916Z,14.60
2019-02-27T00:07:38.145Z,15.43
2019-02-27T00:10:06.821Z,15.70
2019-02-27T00:12:36.379Z,14.13
2019-02-27T00:15:10.589Z,14.23
2019-02-27T00:17:38.681Z,16.17
2019-02-27T00:20:06.666Z,14.23
2019-02-27T00:22:34.694Z,13.40
2019-02-27T00:25:04.022Z,12.68
2019-02-27T00:27:32.302Z,13.30
2019-02-27T00:30:05.734Z,13.93
2019-02-27T00:32:34.907Z,13.15
2019-02-27T00:35:06.435Z,13.10
2019-02-27T00:37:32.935Z,13.90
2019-02-27T00:40:05.455Z,13.88
2019-02-27T00:42:33.556Z,13.45
2019-02-27T00:45:06.774Z,13.88
2019-02-27T00:47:33.599Z,13.38
2019-02-27T00:50:05.608Z,12.43
2019-02-27T00:52:31.390Z,13.85
2019-02-27T00:55:04.295Z,13.88
2019-02-27T00:57:32.081Z,13.35
2019-02-27T01:00:00.944Z,13.85
2019-02-27T01:02:29.335Z,15.23
2019-02-27T01:04:59.730Z,12.45
2019-02-27T01:07:27.688Z,14.03
2019-02-27T01:09:55.619Z,15.15
2019-02-27T01:12:25.242Z,15.80
2019-02-27T01:14:53.304Z,14.70
2019-02-27T01:17:23.890Z,14.63
2019-02-27T01:19:51.186Z,13.13
2019-02-27T01:22:19.175Z,13.72
2019-02-27T01:24:49.929Z,14.10
2019-02-27T01:27:17.335Z,12.10
2019-02-27T01:29:45.215Z,13.40
2019-02-27T01:32:13.198Z,13.00
2019-02-27T01:34:44.175Z,14.15
2019-02-27T01:37:12.159Z,13.55
2019-02-27T01:39:44.073Z,16.93
2019-02-27T01:42:11.981Z,14.53
2019-02-27T01:44:44.012Z,14.28
2019-02-27T01:47:11.966Z,14.55
2019-02-27T01:49:41.312Z,13.70
2019-02-27T01:52:09.292Z,14.20
2019-02-27T01:54:37.290Z,14.40
2019-02-27T01:57:05.230Z,13.30
2019-02-27T01:59:33.227Z,14.40
2019-02-27T02:02:03.500Z,13.62
2019-02-27T02:04:34.802Z,13.55
2019-02-27T02:07:03.972Z,13.10
2019-02-27T02:09:39.418Z,13.60
2019-02-27T02:12:32.490Z,14.23
2019-02-27T02:15:28.524Z,14.10
2019-02-27T02:18:14.510Z,14.95
2019-02-27T02:21:01.657Z,13.80
2019-02-27T02:23:53.041Z,13.58
2019-02-27T02:26:25.601Z,14.45
2019-02-27T02:29:25.007Z,14.78
2019-02-27T02:32:16.809Z,15.85
2019-02-27T02:35:06.712Z,15.72
2019-02-27T02:37:52.663Z,14.23
2019-02-27T02:40:54.647Z,14.65
2019-02-27T02:43:30.506Z,14.53
2019-02-27T02:46:26.373Z,14.38
2019-02-27T02:49:13.694Z,14.18
2019-02-27T02:51:46.297Z,14.18
2019-02-27T02:54:37.537Z,14.33
2019-02-27T02:57:37.083Z,14.33
2019-02-27T03:00:09.212Z,14.05
2019-02-27T03:02:42.296Z,13.75
2019-02-27T03:05:39.286Z,14.78
2019-02-27T03:08:27.719Z,13.18
2019-02-27T03:11:20.449Z,13.72
2019-02-27T03:14:06.155Z,14.13
2019-02-27T03:17:06.967Z,13.70
2019-02-27T03:19:46.342Z,16.07
2019-02-27T03:22:41.649Z,13.53
2019-02-27T03:25:13.276Z,12.18
2019-02-27T03:28:04.481Z,13.28
2019-02-27T03:30:40.425Z,14.50
2019-02-27T03:33:34.550Z,12.85
2019-02-27T03:36:35.939Z,14.03
2019-02-27T03:39:16.259Z,12.88
2019-02-27T03:42:02.097Z,14.43
2019-02-27T03:44:39.730Z,13.55
2019-02-27T03:47:16.708Z,12.75
2019-02-27T03:49:51.628Z,13.00
2019-02-27T03:52:36.041Z,12.90
2019-02-27T03:55:11.751Z,13.60
2019-02-27T03:58:01.333Z,11.68
2019-02-27T04:00:32.497Z,14.45
2019-02-27T04:03:37.919Z,14.45
2019-02-27T04:06:19.739Z,12.63
2019-02-27T04:08:55.890Z,13.55
2019-02-27T04:11:23.926Z,13.48
2019-02-27T04:13:52.509Z,12.53
2019-02-27T04:16:20.469Z,13.38
2019-02-27T04:18:50.153Z,13.08
2019-02-27T04:21:18.089Z,14.28
2019-02-27T04:23:49.075Z,14.80
2019-02-27T04:26:16.329Z,12.30
2019-02-27T04:28:46.059Z,14.20
2019-02-27T04:31:14.045Z,12.68
2019-02-27T04:33:41.974Z,13.03
2019-02-27T04:36:12.845Z,13.25
2019-02-27T04:38:43.590Z,13.50
2019-02-27T04:41:11.511Z,13.03
2019-02-27T04:43:40.584Z,14.03
2019-02-27T04:46:11.512Z,14.85
2019-02-27T04:48:45.784Z,13.70
2019-02-27T04:51:17.193Z,12.47
2019-02-27T04:53:46.503Z,13.60
2019-02-27T04:56:16.145Z,12.80
2019-02-27T04:58:44.115Z,13.10
2019-02-27T05:01:12.016Z,13.25
2019-02-27T05:03:40.439Z,13.40
2019-02-27T05:06:12.072Z,12.20
2019-02-27T05:08:43.191Z,12.82
2019-02-27T05:11:13.956Z,10.75
2019-02-27T05:13:41.891Z,12.20
2019-02-27T05:16:13.963Z,12.05
2019-02-27T05:18:39.471Z,13.13
2019-02-27T05:21:07.445Z,13.35
2019-02-27T05:23:35.491Z,12.28
2019-02-27T05:26:05.933Z,13.90
2019-02-27T05:28:34.979Z,13.30
2019-02-27T05:31:03.514Z,12.15
2019-02-27T05:33:35.670Z,13.95
2019-02-27T05:36:01.061Z,15.00
2019-02-27T05:38:30.657Z,12.53
2019-02-27T05:41:00.012Z,14.55
2019-02-27T05:43:28.615Z,14.00
2019-02-27T05:45:57.930Z,11.97
2019-02-27T05:48:25.913Z,11.78
2019-02-27T05:50:53.980Z,11.80
2019-02-27T05:53:22.831Z,12.40
2019-02-27T05:55:50.963Z,12.85
2019-02-27T05:58:23.060Z,10.98
2019-02-27T06:00:52.861Z,12.15
2019-02-27T06:03:22.783Z,11.35
2019-02-27T06:05:51.567Z,13.18
2019-02-27T06:08:21.725Z,12.63
2019-02-27T06:10:55.113Z,13.08
2019-02-27T06:13:19.445Z,11.35
2019-02-27T06:15:49.142Z,12.78
2019-02-27T06:18:22.564Z,11.93
2019-02-27T06:20:47.445Z,13.13
2019-02-27T06:23:15.298Z,12.53
2019-02-27T06:25:44.494Z,12.20
2019-02-27T06:28:12.482Z,12.88
2019-02-27T06:30:40.807Z,12.53
2019-02-27T06:33:11.798Z,13.35
2019-02-27T06:35:40.610Z,13.00
2019-02-27T06:38:10.700Z,12.07
2019-02-27T06:40:42.060Z,13.45
2019-02-27T06:43:08.182Z,11.95
2019-02-27T06:45:36.017Z,13.10
2019-02-27T06:48:03.884Z,13.40
2019-02-27T06:50:31.790Z,11.88
2019-02-27T06:53:01.293Z,12.80
2019-02-27T06:55:29.191Z,11.70
2019-02-27T06:57:57.047Z,11.15
2019-02-27T07:00:24.921Z,11.15
2019-02-27T07:02:55.138Z,12.18
2019-02-27T07:05:23.301Z,13.38
2019-02-27T07:07:51.151Z,13.48
2019-02-27T07:10:20.014Z,12.50
2019-02-27T07:12:48.657Z,14.33
2019-02-27T07:15:16.957Z,11.60
2019-02-27T07:17:44.840Z,12.50
2019-02-27T07:20:13.137Z,12.85
2019-02-27T07:22:45.685Z,13.28
2019-02-27T07:25:10.723Z,13.78
2019-02-27T07:27:38.595Z,14.00
2019-02-27T07:30:08.049Z,13.68
2019-02-27T07:32:36.067Z,13.45
2019-02-27T07:35:03.927Z,12.05
2019-02-27T07:37:31.823Z,12.30
2019-02-27T07:39:59.658Z,12.93
2019-02-27T07:42:31.894Z,12.30
2019-02-27T07:44:57.155Z,12.68
2019-02-27T07:47:25.039Z,11.75
2019-02-27T07:49:52.879Z,12.33
2019-02-27T07:52:20.751Z,11.50
2019-02-27T07:54:48.629Z,12.68
2019-02-27T07:57:16.519Z,11.50
2019-02-27T07:59:44.426Z,12.78
2019-02-27T08:02:12.360Z,12.60
2019-02-27T08:04:40.249Z,14.30
2019-02-27T08:07:10.006Z,12.53
2019-02-27T08:09:37.716Z,11.35
2019-02-27T08:12:05.578Z,10.98
2019-02-27T08:14:36.770Z,12.40
2019-02-27T08:17:03.079Z,10.50
2019-02-27T08:19:30.946Z,13.35
2019-02-27T08:21:58.872Z,11.48
2019-02-27T08:24:26.755Z,11.65
2019-02-27T08:26:54.592Z,11.55
2019-02-27T08:29:22.453Z,11.88
2019-02-27T08:31:50.352Z,13.48
2019-02-27T08:34:18.211Z,12.18
2019-02-27T08:36:46.086Z,12.45
2019-02-27T08:39:13.943Z,12.10
2019-02-27T08:41:41.790Z,13.13
2019-02-27T08:44:12.338Z,13.20
2019-02-27T08:46:39.280Z,14.13
2019-02-27T08:49:07.164Z,12.60
2019-02-27T08:51:35.509Z,11.43
2019-02-27T08:54:03.435Z,11.68
2019-02-27T08:56:31.300Z,11.90
2019-02-27T08:58:59.193Z,12.03
2019-02-27T09:01:27.093Z,11.23
2019-02-27T09:03:54.965Z,12.73
2019-02-27T09:06:27.336Z,13.50
2019-02-27T09:08:52.439Z,12.10
2019-02-27T09:11:20.346Z,12.30
2019-02-27T09:13:48.174Z,13.23
2019-02-27T09:16:16.069Z,12.97
2019-02-27T09:18:44.218Z,11.60
2019-02-27T09:21:12.220Z,12.47
2019-02-27T09:23:40.084Z,12.23
2019-02-27T09:26:08.040Z,12.47
2019-02-27T09:28:35.899Z,11.77
2019-02-27T09:31:04.525Z,11.50
2019-02-27T09:33:38.521Z,11.50
2019-02-27T09:36:02.190Z,11.87
2019-02-27T09:38:30.035Z,11.77
2019-02-27T09:40:57.964Z,11.47
2019-02-27T09:43:27.210Z,10.77
2019-02-27T09:45:55.498Z,11.67
2019-02-27T09:48:23.540Z,9.63
2019-02-27T09:50:51.383Z,10.00
2019-02-27T09:53:19.484Z,10.27
2019-02-27T09:55:47.392Z,9.23
2019-02-27T09:58:15.334Z,9.07
2019-02-27T10:00:44.350Z,8.00
2019-02-27T10:03:12.268Z,9.50
2019-02-27T10:05:40.877Z,8.30
2019-02-27T10:08:09.030Z,7.77
2019-02-27T10:10:36.914Z,7.50
2019-02-27T10:13:04.782Z,7.23
2019-02-27T10:15:34.392Z,6.90
2019-02-27T10:18:02.229Z,5.93
2019-02-27T10:20:30.050Z,5.80
2019-02-27T10:22:57.961Z,5.20
2019-02-27T10:25:25.822Z,3.93
2019-02-27T10:27:53.655Z,4.27
2019-02-27T10:30:21.503Z,4.10
2019-02-27T10:32:49.450Z,3.30
2019-02-27T10:35:17.305Z,2.87
2019-02-27T10:37:50.332Z,2.87
2019-02-27T10:40:15.686Z,3.27
2019-02-27T10:42:43.519Z,3.10
2019-02-27T10:45:11.390Z,2.60
2019-02-27T10:47:39.984Z,2.40
2019-02-27T10:50:08.096Z,2.30
2019-02-27T10:52:35.941Z,2.60
2019-02-27T10:55:03.870Z,2.67
2019-02-27T10:57:36.679Z,2.33
2019-02-27T11:00:03.384Z,2.40
2019-02-27T11:02:31.684Z,2.57
2019-02-27T11:04:59.737Z,2.50
2019-02-27T11:07:27.666Z,3.80
2019-02-27T11:09:57.186Z,5.03
2019-02-27T11:12:26.872Z,2.60
2019-02-27T11:14:54.768Z,3.10
2019-02-27T11:17:23.124Z,4.60
2019-02-27T11:19:58.317Z,2.20
2019-02-27T11:22:25.900Z,1.93
2019-02-27T11:24:53.823Z,2.37
2019-02-27T11:27:23.395Z,2.07
2019-02-27T11:29:51.286Z,2.47
2019-02-27T11:32:22.878Z,2.67
2019-02-27T11:34:49.218Z,2.70
2019-02-27T11:37:18.678Z,2.60
2019-02-27T11:39:46.559Z,3.20
2019-02-27T11:42:20.185Z,2.83
2019-02-27T11:44:49.750Z,2.63
2019-02-27T11:47:20.607Z,2.87
2019-02-27T11:49:48.565Z,3.40
2019-02-27T11:52:16.563Z,2.80
2019-02-27T11:54:48.583Z,2.70
2019-02-27T11:57:16.913Z,3.83
2019-02-27T11:59:47.545Z,2.90
2019-02-27T12:02:15.778Z,3.13
2019-02-27T12:04:43.771Z,3.47
2019-02-27T12:07:12.275Z,2.80
2019-02-27T12:09:43.054Z,3.60
2019-02-27T12:12:12.501Z,3.23
2019-02-27T12:14:40.419Z,3.67
2019-02-27T12:17:14.462Z,3.50
2019-02-27T12:19:45.202Z,3.70
2019-02-27T12:22:15.154Z,3.90
2019-02-27T12:24:43.079Z,3.20
2019-02-27T12:27:24.507Z,3.37
2019-02-27T12:29:42.184Z,3.87
2019-02-27T12:32:10.185Z,3.90
2019-02-27T12:34:39.019Z,4.47
2019-02-27T12:37:19.119Z,4.00
2019-02-27T12:39:37.630Z,4.20
2019-02-27T12:42:07.093Z,3.93
2019-02-27T12:44:35.154Z,4.40
2019-02-27T12:47:05.584Z,4.07
2019-02-27T12:49:32.624Z,5.20
2019-02-27T12:52:00.517Z,3.90
2019-02-27T12:54:28.498Z,4.83
2019-02-27T12:56:56.405Z,5.10
2019-02-27T12:59:24.258Z,4.63
2019-02-27T13:01:52.116Z,4.17
2019-02-27T13:04:20.094Z,4.83
2019-02-27T13:06:48.007Z,4.90
2019-02-27T13:09:15.956Z,5.17
2019-02-27T13:11:44.973Z,4.97
2019-02-27T13:14:13.067Z,5.53
2019-02-27T13:16:40.874Z,5.27
2019-02-27T13:19:08.731Z,5.10
2019-02-27T13:21:36.599Z,5.03
2019-02-27T13:24:04.566Z,5.03
2019-02-27T13:26:34.643Z,5.40
2019-02-27T13:29:01.996Z,4.70
2019-02-27T13:31:29.918Z,5.50
2019-02-27T13:33:57.782Z,5.37
2019-02-27T13:36:25.647Z,6.30
2019-02-27T13:38:53.510Z,6.23
2019-02-27T13:41:21.392Z,5.03
2019-02-27T13:43:49.227Z,4.70
2019-02-27T13:46:17.077Z,5.33
2019-02-27T13:48:44.919Z,6.33
2019-02-27T13:51:12.755Z,6.83
2019-02-27T13:53:40.593Z,5.97
2019-02-27T13:56:08.479Z,5.03
2019-02-27T13:58:36.632Z,5.70
2019-02-27T14:01:04.561Z,5.73
2019-02-27T14:03:32.382Z,6.10
2019-02-27T14:06:00.229Z,6.30
2019-02-27T14:08:29.080Z,6.57
2019-02-27T14:10:57.706Z,5.97
2019-02-27T14:13:25.573Z,5.63
2019-02-27T14:15:53.438Z,6.33
2019-02-27T14:18:21.299Z,5.53
2019-02-27T14:20:49.153Z,5.50
2019-02-27T14:23:17.015Z,6.50
2019-02-27T14:25:44.823Z,6.00
2019-02-27T14:28:12.758Z,6.17
2019-02-27T14:30:42.029Z,6.10
2019-02-27T14:33:11.035Z,6.00
2019-02-27T14:35:39.095Z,6.23
2019-02-27T14:38:06.986Z,7.30
2019-02-27T14:40:37.687Z,6.77
2019-02-27T14:43:04.713Z,6.53
2019-02-27T14:45:32.609Z,7.13
2019-02-27T14:48:00.469Z,6.20
2019-02-27T14:50:33.549Z,7.10
2019-02-27T14:52:58.835Z,7.20
2019-02-27T14:55:26.682Z,5.87
2019-02-27T14:57:54.523Z,6.40
2019-02-27T15:00:26.198Z,6.70
2019-02-27T15:02:55.680Z,6.50
2019-02-27T15:05:23.834Z,7.23
2019-02-27T15:07:53.448Z,6.20
2019-02-27T15:10:21.452Z,7.50
2019-02-27T15:12:53.920Z,7.50
2019-02-27T15:15:19.825Z,7.23
2019-02-27T15:17:47.707Z,7.33
2019-02-27T15:20:15.989Z,7.90
2019-02-27T15:22:43.837Z,7.73
2019-02-27T15:25:12.587Z,7.23
2019-02-27T15:27:40.394Z,8.70
2019-02-27T15:30:12.849Z,6.93
2019-02-27T15:32:38.496Z,8.63
2019-02-27T15:35:06.767Z,7.27
2019-02-27T15:37:37.182Z,8.30
2019-02-27T15:40:04.541Z,9.47
2019-02-27T15:42:32.404Z,12.50
2019-02-27T15:45:00.348Z,8.90
2019-02-27T15:47:30.444Z,6.80
2019-02-27T15:49:57.784Z,7.30
2019-02-27T15:52:25.680Z,6.70
2019-02-27T15:54:55.558Z,6.47
2019-02-27T15:57:23.228Z,5.50
2019-02-27T15:59:51.083Z,5.80
2019-02-27T16:02:18.934Z,6.37
2019-02-27T16:04:46.927Z,5.43
2019-02-27T16:07:14.819Z,6.33
2019-02-27T16:09:42.640Z,6.00
2019-02-27T16:12:10.564Z,5.85
2019-02-27T16:14:40.244Z,5.65
2019-02-27T16:17:07.991Z,5.58
2019-02-27T16:19:35.847Z,5.90
2019-02-27T16:22:04.047Z,11.90
2019-02-27T16:24:31.927Z,20.30
2019-02-27T16:27:01.184Z,18.95
2019-02-27T16:29:29.437Z,12.00
2019-02-27T16:31:57.377Z,13.25
2019-02-27T16:34:25.267Z,11.00
2019-02-27T16:36:53.176Z,7.50
2019-02-27T16:39:21.035Z,7.00
2019-02-27T16:41:48.943Z,6.37
2019-02-27T16:44:21.663Z,6.70
2019-02-27T16:46:46.600Z,6.47
2019-02-27T16:49:14.475Z,6.80
2019-02-27T16:51:42.350Z,6.50
2019-02-27T16:54:10.248Z,5.92
2019-02-27T16:56:38.106Z,6.37
2019-02-27T16:59:08.062Z,6.92
2019-02-27T17:01:35.526Z,6.33
2019-02-27T17:04:03.377Z,6.42
2019-02-27T17:06:31.272Z,7.50
2019-02-27T17:08:59.158Z,8.48
2019-02-27T17:11:29.457Z,8.78
2019-02-27T17:13:57.797Z,7.95
2019-02-27T17:16:25.818Z,7.90
2019-02-27T17:18:55.007Z,8.30
2019-02-27T17:21:25.946Z,7.80
2019-02-27T17:23:52.509Z,8.88
2019-02-27T17:26:20.375Z,8.05
2019-02-27T17:28:48.650Z,8.65
2019-02-27T17:31:17.950Z,9.25
2019-02-27T17:33:45.897Z,8.68
2019-02-27T17:36:13.762Z,8.25
2019-02-27T17:38:42.167Z,8.00
2019-02-27T17:41:10.045Z,7.58
2019-02-27T17:43:40.208Z,8.10
2019-02-27T17:46:08.078Z,8.00
2019-02-27T17:48:36.067Z,7.28
2019-02-27T17:51:06.521Z,7.62
2019-02-27T17:53:33.647Z,7.80
2019-02-27T17:56:01.497Z,7.67
2019-02-27T17:58:33.590Z,7.37
2019-02-27T18:01:01.740Z,7.92
2019-02-27T18:03:29.587Z,7.85
2019-02-27T18:05:59.398Z,6.65
2019-02-27T18:08:28.685Z,7.33
2019-02-27T18:10:56.766Z,6.50
2019-02-27T18:13:27.063Z,7.08
2019-02-27T18:15:59.384Z,7.90
2019-02-27T18:18:27.949Z,7.03
2019-02-27T18:20:56.761Z,6.72
2019-02-27T18:23:25.990Z,7.35
2019-02-27T18:25:59.146Z,8.80
2019-02-27T18:28:27.099Z,7.85
2019-02-27T18:30:55.140Z,8.63
2019-02-27T18:33:23.655Z,8.50
2019-02-27T18:35:51.684Z,8.38
2019-02-27T18:38:22.221Z,8.30
2019-02-27T18:40:51.972Z,8.38
2019-02-27T18:43:19.907Z,8.15
2019-02-27T18:45:50.828Z,7.97
2019-02-27T18:48:19.197Z,7.97
2019-02-27T18:50:47.200Z,7.37
2019-02-27T18:53:17.286Z,7.05
2019-02-27T18:55:47.510Z,8.13
2019-02-27T18:58:18.194Z,8.75
2019-02-27T19:00:45.228Z,8.30
2019-02-27T19:03:14.617Z,8.25
2019-02-27T19:05:46.445Z,9.18
2019-02-27T19:08:15.298Z,8.25
2019-02-27T19:10:43.318Z,8.78
2019-02-27T19:13:11.453Z,9.43
2019-02-27T19:15:45.509Z,9.75
2019-02-27T19:18:12.752Z,8.90
2019-02-27T19:20:40.925Z,9.50
2019-02-27T19:23:10.163Z,9.58
2019-02-27T19:25:39.458Z,10.13
2019-02-27T19:28:07.544Z,10.30
2019-02-27T19:30:35.569Z,10.32
2019-02-27T19:33:03.795Z,9.13
2019-02-27T19:35:34.570Z,9.98
2019-02-27T19:38:03.669Z,9.08
2019-02-27T19:40:34.148Z,10.72
2019-02-27T19:43:02.525Z,9.83
2019-02-27T19:45:31.826Z,9.25
2019-02-27T19:48:00.212Z,7.95
2019-02-27T19:50:29.221Z,9.65
2019-02-27T19:53:02.805Z,9.08
2019-02-27T19:55:28.167Z,11.05
2019-02-27T19:57:56.227Z,9.80
2019-02-27T20:00:26.850Z,10.48
2019-02-27T20:03:00.380Z,9.70
2019-02-27T20:05:27.263Z,10.60
2019-02-27T20:07:55.424Z,10.80
2019-02-27T20:10:29.082Z,10.93
2019-02-27T20:12:53.930Z,10.53
2019-02-27T20:15:24.667Z,10.30
2019-02-27T20:17:53.238Z,10.23
2019-02-27T20:20:24.990Z,10.38
2019-02-27T20:22:54.589Z,10.25
2019-02-27T20:25:23.735Z,11.85
2019-02-27T20:27:51.911Z,11.15
2019-02-27T20:30:22.489Z,10.70
2019-02-27T20:32:50.612Z,11.03
2019-02-27T20:35:20.753Z,10.93
2019-02-27T20:37:48.476Z,11.03
2019-02-27T20:40:17.657Z,10.55
2019-02-27T20:42:49.784Z,10.28
2019-02-27T20:45:16.171Z,10.80
2019-02-27T20:48:01.669Z,10.60
2019-02-27T20:53:41.085Z,10.85
2019-02-27T20:56:06.082Z,10.72
2019-02-27T20:59:02.012Z,11.25
2019-02-27T21:01:39.921Z,11.15
2019-02-27T21:04:11.793Z,10.60
2019-02-27T21:07:01.070Z,11.10
2019-02-27T21:09:35.052Z,10.78
2019-02-27T21:12:09.805Z,13.28
2019-02-27T21:14:46.567Z,11.70
2019-02-27T21:20:11.883Z,12.03
2019-02-27T21:22:44.514Z,11.45
2019-02-27T21:25:15.742Z,12.05
2019-02-27T21:27:44.954Z,12.90
2019-02-27T21:30:17.769Z,12.25
2019-02-27T21:32:51.192Z,13.20
2019-02-27T21:35:19.516Z,12.53
2019-02-27T21:37:50.753Z,13.25
2019-02-27T21:40:18.395Z,12.20
2019-02-27T21:42:46.550Z,11.90
2019-02-27T21:45:15.628Z,11.45
2019-02-27T21:47:43.717Z,11.35
2019-02-27T21:50:12.732Z,11.12
2019-02-27T21:52:44.354Z,11.95
2019-02-27T21:55:12.983Z,11.53
2019-02-27T21:57:43.817Z,11.73
2019-02-27T22:00:15.822Z,11.38
2019-02-27T22:02:45.870Z,12.80
2019-02-27T22:05:18.500Z,11.65
2019-02-27T22:07:44.534Z,12.63
2019-02-27T22:10:18.981Z,11.85
2019-02-27T22:12:45.744Z,13.43
2019-02-27T22:15:21.935Z,12.53
2019-02-27T22:17:50.529Z,11.78
2019-02-27T22:20:18.524Z,14.35
2019-02-27T22:22:46.478Z,12.33
2019-02-27T22:25:14.544Z,12.00
2019-02-27T22:27:43.234Z,11.50
2019-02-27T22:30:13.000Z,12.18
2019-02-27T22:32:47.611Z,11.63
2019-02-27T22:35:13.012Z,11.88
2019-02-27T22:37:40.971Z,12.60
2019-02-27T22:40:09.710Z,12.82
2019-02-27T22:42:37.738Z,10.65
2019-02-27T22:45:06.021Z,12.37
2019-02-27T22:47:33.886Z,11.10
2019-02-27T22:50:06.057Z,11.30
2019-02-27T22:52:31.431Z,12.20
2019-02-27T22:54:59.310Z,11.33
2019-02-27T22:57:27.167Z,12.55
2019-02-27T22:59:55.270Z,12.95
2019-02-27T23:02:23.328Z,13.13
2019-02-27T23:04:51.316Z,11.40
2019-02-27T23:07:21.262Z,12.05
2019-02-27T23:09:48.819Z,12.98
2019-02-27T23:12:16.707Z,13.45
2019-02-27T23:14:44.713Z,12.50
2019-02-27T23:17:12.638Z,13.32
2019-02-27T23:19:40.489Z,12.20
2019-02-27T23:22:08.809Z,12.75
2019-02-27T23:24:36.677Z,12.60
2019-02-27T23:27:04.542Z,12.37
2019-02-27T23:29:32.379Z,12.70
2019-02-27T23:32:00.234Z,12.98
2019-02-27T23:34:28.094Z,14.20
2019-02-27T23:36:56.539Z,13.25
2019-02-27T23:39:24.352Z,14.80
2019-02-27T23:41:53.957Z,14.10
2019-02-27T23:44:21.746Z,15.45
2019-02-27T23:46:51.708Z,15.70
2019-02-27T23:49:19.231Z,13.68
2019-02-27T23:51:47.761Z,14.10
2019-02-27T23:54:16.478Z,12.73
2019-02-27T23:56:44.346Z,14.55
2019-02-27T23:59:12.198Z,13.28
